createdAt,value
2023-11-30T00:00:16.270Z,11.99
2023-11-30T00:03:02.637Z,11.99
2023-11-30T00:05:49.185Z,11.99
2023-11-30T00:08:35.739Z,11.99
2023-11-30T00:11:22.219Z,11.93
2023-11-30T00:14:09.915Z,12.14
2023-11-30T00:16:56.698Z,12.09
2023-11-30T00:19:43.144Z,12.15
2023-11-30T00:22:29.442Z,11.87
2023-11-30T00:25:16.060Z,11.54
2023-11-30T00:28:02.366Z,11.57
2023-11-30T00:30:50.182Z,11.37
2023-11-30T00:33:36.533Z,11.41
2023-11-30T00:36:22.898Z,11.78
2023-11-30T00:39:09.310Z,11.95
2023-11-30T00:41:56.717Z,11.33
2023-11-30T00:44:43.301Z,11.14
2023-11-30T00:47:30.901Z,11.12
2023-11-30T00:50:17.298Z,11.44
2023-11-30T00:53:04.126Z,12.08
2023-11-30T00:55:50.264Z,11.82
2023-11-30T00:58:36.491Z,11.28
2023-11-30T01:01:23.004Z,11.75
2023-11-30T01:04:10.891Z,10.69
2023-11-30T01:06:57.622Z,11.38
2023-11-30T01:09:43.772Z,11.41
2023-11-30T01:12:30.189Z,11.43
2023-11-30T01:15:16.912Z,10.88
2023-11-30T01:18:05.004Z,11.11
2023-11-30T01:20:52.991Z,10.80
2023-11-30T01:23:39.243Z,10.80
2023-11-30T01:26:25.385Z,10.31
2023-11-30T01:29:11.686Z,10.30
2023-11-30T01:31:58.251Z,11.09
2023-11-30T01:34:45.345Z,11.47
2023-11-30T01:37:33.145Z,11.47
2023-11-30T01:40:19.350Z,10.80
2023-11-30T01:43:07.857Z,11.51
2023-11-30T01:46:02.662Z,11.73
2023-11-30T01:48:50.913Z,11.81
2023-11-30T01:51:38.589Z,11.62
2023-11-30T01:54:27.186Z,11.88
2023-11-30T01:57:14.220Z,11.85
2023-11-30T02:00:00.706Z,11.66
2023-11-30T02:02:47.405Z,11.42
2023-11-30T02:05:33.760Z,11.41
2023-11-30T02:08:20.313Z,11.22
2023-11-30T02:11:08.319Z,11.36
2023-11-30T02:13:56.429Z,10.48
2023-11-30T02:16:42.935Z,10.21
2023-11-30T02:19:29.412Z,10.01
2023-11-30T02:22:16.888Z,9.75
2023-11-30T02:25:03.372Z,10.65
2023-11-30T02:27:49.940Z,11.10
2023-11-30T02:30:38.190Z,11.00
2023-11-30T02:33:24.627Z,10.97
2023-11-30T02:36:11.684Z,11.14
2023-11-30T02:38:59.726Z,11.61
2023-11-30T02:41:46.345Z,10.88
2023-11-30T02:44:32.501Z,10.90
2023-11-30T02:47:18.843Z,11.25
2023-11-30T02:50:06.275Z,11.38
2023-11-30T02:52:52.611Z,11.15
2023-11-30T02:55:40.451Z,11.50
2023-11-30T02:58:26.925Z,11.99
2023-11-30T03:01:13.426Z,11.36
2023-11-30T03:03:59.644Z,11.73
2023-11-30T03:06:50.603Z,11.74
2023-11-30T03:09:36.718Z,11.66
2023-11-30T03:12:24.279Z,11.67
2023-11-30T03:15:11.406Z,11.77
2023-11-30T03:17:57.768Z,11.57
2023-11-30T03:20:44.056Z,11.46
2023-11-30T03:23:30.465Z,11.41
2023-11-30T03:26:18.394Z,11.28
2023-11-30T03:29:06.056Z,11.26
2023-11-30T03:31:52.565Z,11.13
2023-11-30T03:34:39.199Z,11.21
2023-11-30T03:37:25.688Z,11.48
2023-11-30T03:40:12.991Z,11.45
2023-11-30T03:42:59.110Z,11.39
2023-11-30T03:45:46.974Z,11.26
2023-11-30T03:48:33.313Z,11.15
2023-11-30T03:51:19.769Z,11.34
2023-11-30T03:54:06.649Z,11.17
2023-11-30T03:56:53.368Z,11.29
2023-11-30T03:59:41.044Z,11.39
2023-11-30T04:02:28.692Z,11.04
2023-11-30T04:05:15.553Z,11.07
2023-11-30T04:08:02.485Z,11.05
2023-11-30T04:10:49.247Z,11.40
2023-11-30T04:13:35.298Z,11.28
2023-11-30T04:16:21.598Z,11.36
2023-11-30T04:19:09.494Z,11.46
2023-11-30T04:21:55.977Z,11.58
2023-11-30T04:24:42.495Z,11.38
2023-11-30T04:27:28.948Z,11.47
2023-11-30T04:30:16.722Z,11.15
2023-11-30T04:33:03.251Z,11.20
2023-11-30T04:35:51.026Z,11.29
2023-11-30T04:38:37.406Z,11.09
2023-11-30T04:41:23.376Z,10.85
2023-11-30T04:44:10.127Z,10.77
2023-11-30T04:46:56.504Z,11.38
2023-11-30T04:49:43.057Z,11.30
2023-11-30T04:52:30.650Z,10.97
2023-11-30T04:55:17.342Z,10.66
2023-11-30T04:58:03.746Z,11.07
2023-11-30T05:00:50.371Z,10.85
2023-11-30T05:03:36.945Z,10.70
2023-11-30T05:06:23.572Z,11.44
2023-11-30T05:09:11.721Z,11.47
2023-11-30T05:11:58.370Z,11.69
2023-11-30T05:14:44.763Z,11.37
2023-11-30T05:17:31.351Z,11.57
2023-11-30T05:20:17.903Z,11.65
2023-11-30T05:23:04.458Z,11.71
2023-11-30T05:25:55.337Z,11.42
2023-11-30T05:28:41.701Z,11.46
2023-11-30T05:31:27.926Z,11.58
2023-11-30T05:34:14.448Z,10.85
2023-11-30T05:37:00.979Z,11.57
2023-11-30T05:39:47.415Z,11.32
2023-11-30T05:42:35.463Z,10.18
2023-11-30T05:45:22.034Z,11.18
2023-11-30T05:48:11.697Z,11.06
2023-11-30T05:50:58.360Z,11.45
2023-11-30T05:53:44.981Z,11.76
2023-11-30T05:56:31.402Z,11.87
2023-11-30T05:59:18.926Z,12.04
2023-11-30T06:02:06.215Z,11.99
2023-11-30T06:04:53.327Z,12.00
2023-11-30T06:07:39.853Z,11.82
2023-11-30T06:10:26.333Z,11.63
2023-11-30T06:13:14.126Z,11.76
2023-11-30T06:16:01.955Z,11.53
2023-11-30T06:18:48.351Z,11.51
2023-11-30T06:21:34.742Z,11.41
2023-11-30T06:24:21.196Z,11.87
2023-11-30T06:27:08.387Z,11.50
2023-11-30T06:29:54.987Z,11.69
2023-11-30T06:32:42.765Z,11.62
2023-11-30T06:35:29.204Z,12.07
2023-11-30T06:38:15.660Z,11.64
2023-11-30T06:41:02.300Z,11.73
2023-11-30T06:43:48.584Z,11.75
2023-11-30T06:46:35.514Z,11.99
2023-11-30T06:49:23.485Z,10.96
2023-11-30T06:52:10.058Z,9.96
2023-11-30T06:54:56.440Z,11.33
2023-11-30T06:57:43.063Z,11.89
2023-11-30T07:00:29.160Z,11.93
2023-11-30T07:03:15.735Z,12.13
2023-11-30T07:06:03.837Z,11.92
2023-11-30T07:08:50.427Z,11.75
2023-11-30T07:11:36.876Z,12.01
2023-11-30T07:14:24.120Z,12.11
2023-11-30T07:17:10.464Z,12.34
2023-11-30T07:19:57.032Z,12.40
2023-11-30T07:22:45.215Z,12.60
2023-11-30T07:25:31.407Z,12.06
2023-11-30T07:28:17.982Z,12.23
2023-11-30T07:31:04.740Z,12.37
2023-11-30T07:33:51.303Z,12.50
2023-11-30T07:36:38.096Z,12.26
2023-11-30T07:39:25.846Z,12.18
2023-11-30T07:42:13.366Z,12.12
2023-11-30T07:45:02.962Z,12.21
2023-11-30T07:47:50.226Z,12.55
2023-11-30T07:50:36.690Z,12.60
2023-11-30T07:53:24.384Z,12.66
2023-11-30T07:56:12.470Z,12.82
2023-11-30T07:58:58.866Z,11.95
2023-11-30T08:01:45.515Z,10.96
2023-11-30T08:04:32.192Z,11.40
2023-11-30T08:07:18.436Z,12.32
2023-11-30T08:10:07.453Z,12.66
2023-11-30T08:12:54.976Z,12.60
2023-11-30T08:15:41.317Z,12.40
2023-11-30T08:18:27.610Z,12.37
2023-11-30T08:21:17.130Z,12.55
2023-11-30T08:24:03.700Z,11.86
2023-11-30T08:26:50.370Z,11.42
2023-11-30T08:29:38.117Z,10.90
2023-11-30T08:32:25.695Z,11.38
2023-11-30T08:35:12.583Z,11.90
2023-11-30T08:37:59.020Z,11.82
2023-11-30T08:40:45.330Z,11.99
2023-11-30T08:43:31.979Z,11.88
2023-11-30T08:46:19.793Z,10.86
2023-11-30T08:49:06.094Z,11.99
2023-11-30T08:51:53.404Z,12.79
2023-11-30T08:54:40.110Z,12.32
2023-11-30T08:57:29.941Z,12.61
2023-11-30T09:00:20.372Z,11.90
2023-11-30T09:03:09.091Z,12.04
2023-11-30T09:05:56.023Z,12.43
2023-11-30T09:08:42.630Z,12.16
2023-11-30T09:11:31.040Z,12.25
2023-11-30T09:14:17.274Z,11.89
2023-11-30T09:17:05.373Z,12.04
2023-11-30T09:19:53.093Z,12.23
2023-11-30T09:22:40.693Z,12.44
2023-11-30T09:25:27.604Z,12.41
2023-11-30T09:28:13.916Z,12.30
2023-11-30T09:31:03.244Z,12.20
2023-11-30T09:33:49.765Z,12.08
2023-11-30T09:36:38.502Z,12.28
2023-11-30T09:39:25.012Z,10.64
2023-11-30T09:42:17.079Z,10.52
2023-11-30T09:45:05.400Z,12.27
2023-11-30T09:47:52.032Z,12.41
2023-11-30T09:50:38.851Z,11.61
2023-11-30T09:53:27.124Z,12.12
2023-11-30T09:56:13.697Z,11.78
2023-11-30T09:59:00.211Z,12.01
2023-11-30T10:01:46.584Z,12.87
2023-11-30T10:04:33.179Z,13.52
2023-11-30T10:07:19.980Z,12.72
2023-11-30T10:10:10.121Z,13.28
2023-11-30T10:12:56.620Z,12.28
2023-11-30T10:15:43.110Z,12.67
2023-11-30T10:18:31.371Z,11.96
2023-11-30T10:21:17.812Z,11.29
2023-11-30T10:24:04.490Z,11.13
2023-11-30T10:26:53.602Z,10.46
2023-11-30T10:29:44.720Z,12.99
2023-11-30T10:32:33.932Z,12.91
2023-11-30T10:35:23.140Z,13.07
2023-11-30T10:38:11.790Z,13.25
2023-11-30T10:41:02.656Z,12.01
2023-11-30T10:43:54.484Z,11.69
2023-11-30T10:46:43.877Z,11.46
2023-11-30T10:49:31.083Z,12.33
2023-11-30T10:52:19.591Z,12.79
2023-11-30T10:55:10.230Z,11.82
2023-11-30T10:57:58.533Z,11.51
2023-11-30T11:00:46.871Z,11.77
2023-11-30T11:03:33.865Z,11.43
2023-11-30T11:06:26.307Z,10.68
2023-11-30T11:09:16.777Z,12.81
2023-11-30T11:12:03.697Z,12.29
2023-11-30T11:14:50.940Z,12.15
2023-11-30T11:17:49.128Z,12.15
2023-11-30T11:20:38.140Z,10.96
2023-11-30T11:23:24.684Z,11.33
2023-11-30T11:26:11.358Z,10.41
2023-11-30T11:28:58.131Z,10.98
2023-11-30T11:31:44.576Z,12.59
2023-11-30T11:34:33.150Z,11.75
2023-11-30T11:37:20.437Z,10.47
2023-11-30T11:40:07.735Z,12.21
2023-11-30T11:42:54.432Z,13.75
2023-11-30T11:45:44.038Z,14.23
2023-11-30T11:48:30.377Z,13.80
2023-11-30T11:51:18.180Z,12.97
2023-11-30T11:54:05.031Z,12.44
2023-11-30T11:56:52.616Z,12.59
2023-11-30T11:59:39.184Z,11.76
2023-11-30T12:02:25.839Z,11.64
2023-11-30T12:05:13.631Z,11.28
2023-11-30T12:08:02.423Z,12.40
2023-11-30T12:10:51.654Z,12.44
2023-11-30T12:13:38.990Z,12.26
2023-11-30T12:16:25.581Z,12.06
2023-11-30T12:19:12.164Z,12.54
2023-11-30T12:21:58.423Z,12.21
2023-11-30T12:24:46.378Z,12.16
2023-11-30T12:27:32.592Z,13.06
2023-11-30T12:30:19.841Z,12.80
2023-11-30T12:33:06.356Z,13.11
2023-11-30T12:35:53.589Z,13.40
2023-11-30T12:38:39.948Z,13.49
2023-11-30T12:41:27.764Z,13.95
2023-11-30T12:44:14.710Z,14.11
2023-11-30T12:47:00.773Z,13.51
2023-11-30T12:49:48.840Z,13.89
2023-11-30T12:52:35.502Z,13.80
2023-11-30T12:55:22.045Z,13.29
2023-11-30T12:58:11.300Z,14.04
2023-11-30T13:00:57.659Z,13.64
2023-11-30T13:03:47.241Z,13.60
2023-11-30T13:06:33.811Z,13.33
2023-11-30T13:09:21.079Z,13.69
2023-11-30T13:12:07.941Z,13.57
2023-11-30T13:14:57.320Z,11.91
2023-11-30T13:17:46.805Z,12.85
2023-11-30T13:20:36.364Z,13.53
2023-11-30T13:23:22.668Z,13.78
2023-11-30T13:26:09.278Z,13.73
2023-11-30T13:28:55.577Z,13.53
2023-11-30T13:31:44.179Z,13.75
2023-11-30T13:34:31.327Z,13.52
2023-11-30T13:37:17.632Z,13.69
2023-11-30T13:40:06.702Z,13.52
2023-11-30T13:42:53.375Z,11.73
2023-11-30T13:45:39.742Z,12.79
2023-11-30T13:48:28.226Z,12.55
2023-11-30T13:51:15.669Z,13.12
2023-11-30T13:54:02.263Z,12.80
2023-11-30T13:56:48.743Z,12.93
2023-11-30T13:59:35.964Z,11.62
2023-11-30T14:02:22.313Z,12.78
2023-11-30T14:05:10.681Z,13.55
2023-11-30T14:07:56.956Z,13.66
2023-11-30T14:10:43.503Z,13.23
2023-11-30T14:13:29.940Z,12.98
2023-11-30T14:16:16.800Z,12.68
2023-11-30T14:19:03.597Z,12.62
2023-11-30T14:21:51.310Z,13.13
2023-11-30T14:24:37.759Z,13.44
2023-11-30T14:27:24.382Z,13.28
2023-11-30T14:30:11.425Z,13.27
2023-11-30T14:32:57.726Z,13.57
2023-11-30T14:35:44.333Z,13.08
2023-11-30T14:38:34.275Z,13.35
2023-11-30T14:41:20.372Z,12.93
2023-11-30T14:44:06.945Z,13.54
2023-11-30T14:46:53.681Z,13.18
2023-11-30T14:49:40.119Z,12.76
2023-11-30T14:52:26.635Z,13.54
2023-11-30T14:55:14.809Z,13.68
2023-11-30T14:58:01.569Z,12.43
2023-11-30T15:00:48.573Z,12.27
2023-11-30T15:03:35.495Z,12.32
2023-11-30T15:06:21.861Z,12.56
2023-11-30T15:09:09.284Z,12.66
2023-11-30T15:11:57.038Z,10.86
2023-11-30T15:14:43.411Z,11.30
2023-11-30T15:17:29.807Z,11.87
2023-11-30T15:20:17.838Z,12.39
2023-11-30T15:23:08.413Z,12.70
2023-11-30T15:25:55.673Z,13.17
2023-11-30T15:28:43.619Z,13.19
2023-11-30T15:31:29.950Z,13.58
2023-11-30T15:34:16.547Z,11.63
2023-11-30T15:37:05.280Z,12.83
2023-11-30T15:39:54.129Z,11.66
2023-11-30T15:42:40.477Z,12.61
2023-11-30T15:45:28.414Z,13.01
2023-11-30T15:48:15.034Z,13.19
2023-11-30T15:51:03.142Z,12.86
2023-11-30T15:53:49.406Z,12.53
2023-11-30T15:56:36.169Z,11.92
2023-11-30T15:59:22.335Z,12.32
2023-11-30T16:02:10.194Z,11.97
2023-11-30T16:04:56.402Z,12.62
2023-11-30T16:07:43.172Z,12.70
2023-11-30T16:10:29.374Z,12.65
2023-11-30T16:13:15.703Z,12.75
2023-11-30T16:16:06.209Z,12.95
2023-11-30T16:18:54.069Z,12.77
2023-11-30T16:21:40.525Z,12.60
2023-11-30T16:24:27.071Z,12.82
2023-11-30T16:27:13.214Z,13.12
2023-11-30T16:29:59.593Z,12.45
2023-11-30T16:32:46.320Z,12.89
2023-11-30T16:35:33.863Z,12.38
2023-11-30T16:38:21.484Z,11.78
2023-11-30T16:41:08.446Z,12.12
2023-11-30T16:43:54.841Z,12.45
2023-11-30T16:46:41.287Z,11.53
2023-11-30T16:49:27.702Z,12.20
2023-11-30T16:52:15.460Z,12.21
2023-11-30T16:55:02.739Z,12.45
2023-11-30T16:57:50.115Z,12.04
2023-11-30T17:00:36.541Z,12.25
2023-11-30T17:03:22.999Z,12.08
2023-11-30T17:06:12.869Z,12.03
2023-11-30T17:09:00.924Z,12.14
2023-11-30T17:11:47.240Z,11.72
2023-11-30T17:14:34.022Z,12.44
2023-11-30T17:17:20.229Z,12.58
2023-11-30T17:20:08.744Z,12.55
2023-11-30T17:22:55.157Z,11.44
2023-11-30T17:25:44.682Z,11.96
2023-11-30T17:28:31.168Z,11.48
2023-11-30T17:31:17.640Z,10.59
2023-11-30T17:34:07.486Z,10.81
2023-11-30T17:36:53.803Z,10.61
2023-11-30T17:39:41.175Z,11.51
2023-11-30T17:42:29.826Z,10.91
2023-11-30T17:45:16.469Z,11.37
2023-11-30T17:48:05.518Z,11.38
2023-11-30T17:50:52.200Z,11.67
2023-11-30T17:53:38.468Z,10.94
2023-11-30T17:56:24.584Z,11.52
2023-11-30T17:59:13.142Z,11.36
2023-11-30T18:01:59.482Z,10.55
2023-11-30T18:04:45.542Z,10.43
2023-11-30T18:07:32.398Z,11.32
2023-11-30T18:10:18.637Z,10.34
2023-11-30T18:13:04.874Z,10.65
2023-11-30T18:15:56.143Z,10.58
2023-11-30T18:18:42.757Z,10.58
2023-11-30T18:21:30.192Z,10.93
2023-11-30T18:24:16.796Z,11.51
2023-11-30T18:27:04.506Z,11.87
2023-11-30T18:29:51.217Z,11.10
2023-11-30T18:32:42.809Z,11.22
2023-11-30T18:35:29.294Z,11.49
2023-11-30T18:38:15.884Z,11.53
2023-11-30T18:41:02.540Z,10.72
2023-11-30T18:43:49.300Z,10.02
2023-11-30T18:46:35.868Z,9.62
2023-11-30T18:49:24.085Z,9.66
2023-11-30T18:52:10.992Z,10.52
2023-11-30T18:54:57.679Z,10.53
2023-11-30T18:57:44.195Z,10.68
2023-11-30T19:00:30.608Z,10.61
2023-11-30T19:03:16.828Z,11.34
2023-11-30T19:06:04.993Z,10.96
2023-11-30T19:08:51.782Z,11.09
2023-11-30T19:11:38.198Z,11.36
2023-11-30T19:14:25.035Z,11.40
2023-11-30T19:17:11.296Z,11.32
2023-11-30T19:19:57.748Z,11.06
2023-11-30T19:22:47.030Z,11.33
2023-11-30T19:25:33.880Z,10.69
2023-11-30T19:28:20.205Z,10.92
2023-11-30T19:31:07.638Z,9.74
2023-11-30T19:33:54.532Z,8.85
2023-11-30T19:36:41.012Z,8.33
2023-11-30T19:39:28.687Z,7.34
2023-11-30T19:42:15.235Z,9.25
2023-11-30T19:45:01.615Z,9.32
2023-11-30T19:47:48.152Z,8.31
2023-11-30T19:50:35.497Z,9.18
2023-11-30T19:53:22.559Z,9.53
2023-11-30T19:56:14.265Z,10.46
2023-11-30T19:59:00.844Z,10.20
2023-11-30T20:01:47.247Z,9.83
2023-11-30T20:04:33.915Z,11.29
2023-11-30T20:07:20.277Z,10.69
2023-11-30T20:10:08.164Z,10.54
2023-11-30T20:12:56.503Z,10.68
2023-11-30T20:15:42.721Z,10.07
2023-11-30T20:18:29.132Z,10.54
2023-11-30T20:21:19.489Z,10.51
2023-11-30T20:24:06.183Z,9.86
2023-11-30T20:26:54.952Z,10.62
2023-11-30T20:29:42.875Z,9.90
2023-11-30T20:32:29.349Z,9.31
2023-11-30T20:35:15.583Z,9.23
2023-11-30T20:38:02.110Z,9.23
2023-11-30T20:40:48.631Z,9.34
2023-11-30T20:43:35.208Z,9.31
2023-11-30T20:46:23.036Z,10.48
2023-11-30T20:49:09.273Z,8.34
2023-11-30T20:51:55.634Z,8.36
2023-11-30T20:54:41.926Z,9.99
2023-11-30T20:57:28.416Z,10.04
2023-11-30T21:00:15.658Z,10.45
2023-11-30T21:03:03.669Z,9.64
2023-11-30T21:05:50.321Z,9.15
2023-11-30T21:08:36.891Z,8.81
2023-11-30T21:11:23.558Z,8.88
2023-11-30T21:14:11.510Z,9.53
2023-11-30T21:16:58.193Z,8.84
2023-11-30T21:19:46.184Z,9.26
2023-11-30T21:22:32.868Z,9.57
2023-11-30T21:25:20.882Z,9.47
2023-11-30T21:28:08.849Z,9.79
2023-11-30T21:30:55.408Z,10.35
2023-11-30T21:33:41.845Z,9.59
2023-11-30T21:36:29.752Z,10.49
2023-11-30T21:39:16.135Z,10.74
2023-11-30T21:42:02.505Z,10.12
2023-11-30T21:44:48.974Z,10.57
2023-11-30T21:47:36.801Z,11.01
2023-11-30T21:50:26.341Z,10.87
2023-11-30T21:53:14.952Z,11.01
2023-11-30T21:56:01.419Z,10.65
2023-11-30T21:58:47.712Z,10.49
2023-11-30T22:01:34.092Z,10.88
2023-11-30T22:04:21.052Z,10.83
2023-11-30T22:07:07.328Z,11.06
2023-11-30T22:09:55.164Z,10.22
2023-11-30T22:12:41.460Z,10.41
2023-11-30T22:15:27.966Z,10.93
2023-11-30T22:18:14.516Z,8.68
2023-11-30T22:21:00.866Z,10.27
2023-11-30T22:23:49.010Z,10.20
2023-11-30T22:26:36.829Z,9.80
2023-11-30T22:29:23.154Z,10.02
2023-11-30T22:32:09.701Z,9.70
2023-11-30T22:34:56.168Z,9.38
2023-11-30T22:37:42.610Z,9.56
2023-11-30T22:40:28.715Z,10.90
2023-11-30T22:43:16.291Z,10.63
2023-11-30T22:46:02.782Z,9.31
2023-11-30T22:48:51.038Z,10.44
2023-11-30T22:51:41.753Z,10.11
2023-11-30T22:54:28.929Z,10.27
2023-11-30T22:57:15.497Z,9.63
2023-11-30T23:00:03.512Z,9.77
2023-11-30T23:02:50.358Z,9.92
2023-11-30T23:05:38.571Z,9.67
2023-11-30T23:08:26.893Z,9.20
2023-11-30T23:11:13.469Z,9.39
2023-11-30T23:13:59.788Z,9.98
2023-11-30T23:16:47.597Z,9.34
2023-11-30T23:19:33.904Z,9.44
2023-11-30T23:22:20.284Z,9.57
2023-11-30T23:25:08.202Z,10.91
2023-11-30T23:27:54.679Z,9.61
2023-11-30T23:30:44.019Z,10.73
2023-11-30T23:33:32.341Z,9.43
2023-11-30T23:36:18.772Z,7.92
2023-11-30T23:39:05.536Z,8.60
2023-11-30T23:41:51.658Z,8.73
2023-11-30T23:44:38.908Z,9.12
2023-11-30T23:47:25.224Z,8.94
2023-11-30T23:50:13.646Z,8.60
2023-11-30T23:53:00.220Z,8.64
2023-11-30T23:55:46.405Z,9.44
2023-11-30T23:58:33.144Z,9.99
